Time;durP1;ratioP1;P1;durP2;ratioP2;P2;SDS_P1;SDS_P2;PMS_P1;PMS_P2;Temp;Humidity;BMP_temperature;BMP_pressure;BME280_temperature;BME280_humidity;BME280_pressure;Samples;Min_cycle;Max_cycle;Signal;HPM_P1;HPM_P2
2023/04/16 00:00:08;;;;;;;51.70;29.90;;;;;;;20.46;39.87;100567.17;108145;1253;70983;-65
2023/04/16 00:02:40;;;;;;;48.50;28.90;;;;;;;20.39;39.98;100568.73;108094;1256;72999;-65
2023/04/16 00:05:08;;;;;;;49.30;28.30;;;;;;;20.11;40.32;100568.17;108108;1253;60459;-67
2023/04/16 00:07:36;;;;;;;47.30;29.20;;;;;;;20.19;40.37;100571.16;108107;1253;59612;-67
2023/04/16 00:10:05;;;;;;;48.80;30.60;;;;;;;20.44;39.93;100572.42;108101;1253;73440;-66
2023/04/16 00:12:35;;;;;;;54.80;31.50;;;;;;;20.46;39.96;100572.13;108098;1253;70005;-66
2023/04/16 00:15:03;;;;;;;45.20;29.80;;;;;;;20.64;39.60;100574.98;108114;1253;73033;-66
2023/04/16 00:17:31;;;;;;;50.40;30.10;;;;;;;20.34;39.94;100576.23;108144;1253;60958;-66
2023/04/16 00:19:59;;;;;;;52.10;33.10;;;;;;;20.44;39.81;100571.74;108169;1253;60054;-67
2023/04/16 00:22:28;;;;;;;54.70;32.20;;;;;;;20.34;39.99;100570.81;108142;1255;72129;-67
2023/04/16 00:24:56;;;;;;;52.80;32.20;;;;;;;20.36;40.06;100578.20;108135;1253;69646;-65
2023/04/16 00:27:24;;;;;;;51.20;34.00;;;;;;;20.30;40.23;100576.81;108133;1255;71909;-66
2023/04/16 00:29:51;;;;;;;55.30;33.00;;;;;;;20.23;40.41;100569.84;108129;1256;61546;-64
2023/04/16 00:32:19;;;;;;;55.30;32.50;;;;;;;20.18;40.52;100570.14;108011;1255;60619;-66
2023/04/16 00:34:47;;;;;;;54.20;32.40;;;;;;;20.30;40.25;100570.42;108138;1253;73005;-66
2023/04/16 00:37:15;;;;;;;49.80;30.40;;;;;;;20.33;40.30;100571.63;108122;1254;70669;-66
2023/04/16 00:39:44;;;;;;;47.40;30.50;;;;;;;20.38;40.11;100570.77;108105;1257;72678;-64
2023/04/16 00:42:13;;;;;;;46.80;28.90;;;;;;;20.38;40.17;100574.84;108142;1253;60800;-66
2023/04/16 00:44:41;;;;;;;58.10;32.80;;;;;;;20.45;40.06;100572.00;108013;1258;59637;-65
2023/04/16 00:47:10;;;;;;;49.90;28.10;;;;;;;20.31;40.20;100575.87;108222;1255;73279;-67
2023/04/16 00:49:38;;;;;;;55.90;31.30;;;;;;;20.15;40.68;100576.45;108046;1254;70930;-65
2023/04/16 00:52:06;;;;;;;52.00;32.30;;;;;;;20.33;40.29;100580.19;108073;1253;71938;-63
2023/04/16 00:54:35;;;;;;;56.70;31.90;;;;;;;20.35;40.17;100580.08;108124;1254;61299;-66
2023/04/16 00:57:03;;;;;;;62.20;34.30;;;;;;;20.10;40.88;100581.13;108146;1254;60330;-65
2023/04/16 00:59:31;;;;;;;60.50;34.00;;;;;;;19.90;41.09;100582.45;108051;1255;74326;-66
2023/04/16 01:01:59;;;;;;;50.50;31.70;;;;;;;20.06;40.87;100576.55;108202;1254;70295;-66
2023/04/16 01:04:29;;;;;;;54.30;33.80;;;;;;;20.00;41.05;100580.36;108219;1256;73931;-66
2023/04/16 01:06:57;;;;;;;53.60;32.10;;;;;;;20.13;40.80;100581.77;108166;1252;60160;-67
2023/04/16 01:09:25;;;;;;;62.50;35.50;;;;;;;20.39;40.34;100580.10;108175;1254;59678;-66
2023/04/16 01:11:54;;;;;;;61.50;36.20;;;;;;;20.51;40.15;100580.36;108198;1256;74256;-66
2023/04/16 01:14:21;;;;;;;57.70;33.80;;;;;;;20.56;40.09;100586.98;108215;1256;71598;-68
2023/04/16 01:16:50;;;;;;;54.80;33.10;;;;;;;20.15;40.80;100588.22;108248;1255;72695;-66
2023/04/16 01:19:18;;;;;;;56.90;33.50;;;;;;;20.24;40.68;100590.46;108148;1254;59513;-67
2023/04/16 01:21:46;;;;;;;54.10;32.90;;;;;;;20.42;40.29;100587.60;108140;1256;59913;-66
2023/04/16 01:24:14;;;;;;;62.40;35.80;;;;;;;20.48;40.29;100586.10;108173;1256;73189;-68
2023/04/16 01:26:42;;;;;;;57.00;35.00;;;;;;;20.64;40.14;100589.80;108043;1253;70586;-67
2023/04/16 01:29:10;;;;;;;58.40;34.00;;;;;;;20.57;40.10;100589.23;108146;1254;72079;-66
2023/04/16 01:31:38;;;;;;;50.80;32.30;;;;;;;20.50;40.30;100584.66;108015;1254;61360;-66
2023/04/16 01:34:26;;;;;;;53.10;32.60;;;;;;;19.98;41.28;100582.44;108177;1252;60060;-66
2023/04/16 01:36:54;;;;;;;59.90;32.20;;;;;;;19.83;41.56;100581.71;108235;1254;73898;-67
2023/04/16 01:39:22;;;;;;;49.20;31.10;;;;;;;20.22;40.93;100579.39;108158;1254;69606;-65
2023/04/16 01:41:50;;;;;;;57.00;33.30;;;;;;;20.13;41.02;100581.98;108073;1253;72314;-66
2023/04/16 01:44:18;;;;;;;56.70;33.60;;;;;;;20.04;41.32;100582.02;108188;1252;60277;-65
2023/04/16 01:46:46;;;;;;;55.60;34.20;;;;;;;20.26;40.84;100582.11;108193;1253;60526;-65
2023/04/16 01:49:14;;;;;;;54.40;33.50;;;;;;;20.53;40.46;100579.86;108277;1254;72805;-66
2023/04/16 01:51:42;;;;;;;49.60;28.70;;;;;;;20.53;40.41;100583.45;108261;1254;70288;-66
2023/04/16 01:54:10;;;;;;;49.40;30.40;;;;;;;20.38;40.57;100588.02;108203;1254;70870;-65
2023/04/16 01:56:40;;;;;;;53.50;31.60;;;;;;;20.14;41.16;100584.40;108365;1256;61261;-66
2023/04/16 01:59:08;;;;;;;51.80;31.50;;;;;;;20.44;40.71;100580.84;108254;1253;60429;-65
2023/04/16 02:01:41;;;;;;;54.70;31.30;;;;;;;20.66;40.12;100582.33;108300;1253;73267;-67
2023/04/16 02:04:09;;;;;;;55.70;33.60;;;;;;;20.61;40.36;100585.91;108238;1254;69175;-67
2023/04/16 02:06:38;;;;;;;52.10;31.50;;;;;;;20.55;40.31;100585.58;108012;1254;72275;-66
2023/04/16 02:09:06;;;;;;;50.10;29.30;;;;;;;20.61;40.32;100584.64;108236;1254;61515;-65
2023/04/16 02:11:35;;;;;;;50.20;32.60;;;;;;;20.60;40.34;100587.95;108188;1253;59507;-65
2023/04/16 02:14:03;;;;;;;55.00;29.80;;;;;;;20.39;40.69;100589.41;108196;1255;72993;-66
2023/04/16 02:16:31;;;;;;;49.70;30.40;;;;;;;20.37;40.74;100588.64;108106;1254;69803;-66
2023/04/16 02:19:18;;;;;;;54.80;30.80;;;;;;;20.30;40.84;100598.59;108181;1254;73571;-65
2023/04/16 02:21:46;;;;;;;46.70;28.70;;;;;;;20.61;40.38;100596.64;108151;1256;61208;-65
2023/04/16 02:24:15;;;;;;;46.40;27.60;;;;;;;20.49;40.49;100596.51;108153;1254;61307;-64
2023/04/16 02:26:44;;;;;;;49.00;28.80;;;;;;;20.64;40.36;100598.55;108035;1254;70973;-65
2023/04/16 02:29:15;;;;;;;43.20;28.00;;;;;;;20.75;40.12;100602.77;107999;1254;70671;-65
2023/04/16 02:31:47;;;;;;;47.80;29.50;;;;;;;20.76;40.11;100602.15;108094;1256;73857;-66
2023/04/16 02:34:15;;;;;;;41.90;27.20;;;;;;;20.29;40.82;100603.96;108060;1254;60299;-65
2023/04/16 02:36:43;;;;;;;48.90;28.90;;;;;;;20.08;41.26;100607.81;108228;1252;61334;-65
2023/04/16 02:39:11;;;;;;;52.80;29.30;;;;;;;20.07;41.28;100607.55;108235;1254;72694;-64
2023/04/16 02:41:39;;;;;;;42.80;26.20;;;;;;;20.19;41.23;100607.39;108029;1254;70677;-66
2023/04/16 02:44:07;;;;;;;44.40;27.10;;;;;;;20.54;40.59;100606.33;108064;1253;71827;-65
2023/04/16 02:46:36;;;;;;;48.60;26.80;;;;;;;20.72;40.32;100612.04;108191;1256;60683;-66
2023/04/16 02:49:04;;;;;;;50.40;28.50;;;;;;;21.12;39.46;100612.05;108052;1254;59631;-66
2023/04/16 02:51:32;;;;;;;43.60;26.80;;;;;;;21.02;39.73;100610.42;108021;1254;74394;-68
2023/04/16 02:54:01;;;;;;;44.20;26.60;;;;;;;20.50;40.41;100613.06;108169;1252;68574;-66
2023/04/16 02:56:30;;;;;;;43.30;26.10;;;;;;;20.34;40.82;100612.59;108164;1254;72726;-67
2023/04/16 02:58:58;;;;;;;49.40;27.10;;;;;;;20.40;40.75;100615.85;108054;1254;60802;-66
2023/04/16 03:01:27;;;;;;;44.70;26.20;;;;;;;20.49;40.76;100613.98;108054;1253;61534;-66
2023/04/16 03:03:56;;;;;;;38.70;24.40;;;;;;;20.50;40.61;100620.59;108065;1254;72130;-65
2023/04/16 03:06:26;;;;;;;44.20;22.40;;;;;;;20.54;40.42;100622.41;108090;1254;71364;-66
2023/04/16 03:08:54;;;;;;;35.30;21.50;;;;;;;20.78;40.11;100622.48;108071;1254;72502;-65
2023/04/16 03:11:23;;;;;;;41.30;22.70;;;;;;;20.75;40.13;100625.24;108062;1252;60799;-66
2023/04/16 03:13:50;;;;;;;35.00;21.90;;;;;;;20.65;40.35;100630.20;108037;1257;60299;-66
2023/04/16 03:16:18;;;;;;;35.00;22.40;;;;;;;20.53;40.51;100633.52;108138;1254;75221;-65
2023/04/16 03:18:46;;;;;;;33.90;22.40;;;;;;;20.73;40.15;100634.13;108048;1256;68985;-65
2023/04/16 03:21:17;;;;;;;35.10;22.50;;;;;;;20.62;40.42;100637.08;108050;1253;72843;-65
2023/04/16 03:23:45;;;;;;;30.70;19.80;;;;;;;20.56;40.45;100636.74;108015;1254;61997;-67
2023/04/16 03:26:13;;;;;;;31.90;20.00;;;;;;;20.79;40.23;100637.41;108074;1254;60398;-66
2023/04/16 03:28:47;;;;;;;34.00;20.40;;;;;;;20.75;40.20;100642.20;108117;1254;74526;-66
2023/04/16 03:31:15;;;;;;;28.30;18.80;;;;;;;20.21;40.97;100647.86;108128;1253;70607;-64
2023/04/16 03:33:43;;;;;;;32.20;19.40;;;;;;;20.12;41.28;100646.21;107972;1255;70854;-65
2023/04/16 03:36:11;;;;;;;34.00;19.20;;;;;;;20.46;40.81;100646.17;107942;1257;60896;-65
2023/04/16 03:38:39;;;;;;;40.10;20.10;;;;;;;20.86;40.15;100643.91;108107;1253;60222;-66
2023/04/16 03:41:09;;;;;;;32.20;19.40;;;;;;;20.99;39.97;100647.91;108081;1254;75114;-65
2023/04/16 03:43:37;;;;;;;36.40;20.80;;;;;;;20.64;40.48;100645.82;107971;1261;71212;-65
2023/04/16 03:46:05;;;;;;;37.50;20.00;;;;;;;20.68;40.36;100651.39;108050;1253;71076;-66
2023/04/16 03:48:34;;;;;;;36.70;20.60;;;;;;;20.93;40.07;100652.66;108041;1254;62095;-66
2023/04/16 03:51:02;;;;;;;33.90;18.90;;;;;;;21.19;39.51;100653.11;107961;1253;60532;-66
2023/04/16 03:53:31;;;;;;;34.90;20.10;;;;;;;21.36;39.31;100652.20;108066;1260;75292;-66
2023/04/16 03:55:59;;;;;;;35.60;21.40;;;;;;;21.27;39.37;100656.80;108098;1259;71847;-66
2023/04/16 03:58:28;;;;;;;28.80;19.50;;;;;;;21.11;39.53;100659.58;108289;1256;72089;-65
2023/04/16 04:00:56;;;;;;;38.20;20.70;;;;;;;20.52;40.72;100659.50;108049;1253;61099;-66
2023/04/16 04:03:25;;;;;;;38.50;20.00;;;;;;;20.54;40.75;100660.20;108099;1254;60348;-66
2023/04/16 04:05:53;;;;;;;36.90;21.20;;;;;;;20.45;40.79;100658.02;108211;1253;71984;-65
2023/04/16 04:08:28;;;;;;;33.20;20.30;;;;;;;20.86;40.17;100658.86;108211;1254;71788;-65
2023/04/16 04:10:57;;;;;;;33.40;21.40;;;;;;;20.84;40.13;100660.98;108272;1252;73658;-66
2023/04/16 04:13:26;;;;;;;38.70;23.30;;;;;;;20.49;40.79;100663.20;108091;1254;61501;-66
2023/04/16 04:15:54;;;;;;;41.00;24.30;;;;;;;20.38;41.05;100664.73;108286;1253;60365;-65
2023/04/16 04:18:23;;;;;;;46.90;23.70;;;;;;;20.35;41.21;100665.14;108078;1258;74914;-66
2023/04/16 04:20:51;;;;;;;40.20;22.00;;;;;;;20.46;41.13;100664.70;108270;1254;70190;-64
2023/04/16 04:23:21;;;;;;;41.90;24.80;;;;;;;20.41;40.87;100664.14;108198;1254;73115;-66
2023/04/16 04:25:50;;;;;;;45.30;25.50;;;;;;;20.29;41.28;100663.74;108165;1255;60424;-67
2023/04/16 04:28:18;;;;;;;48.20;27.00;;;;;;;20.86;40.35;100659.56;108180;1253;61177;-67
2023/04/16 04:30:47;;;;;;;42.20;25.80;;;;;;;20.80;40.38;100659.31;108186;1254;74071;-66
2023/04/16 04:33:16;;;;;;;47.70;25.40;;;;;;;20.62;40.77;100659.32;108053;1258;71502;-66
2023/04/16 04:35:44;;;;;;;44.60;25.50;;;;;;;21.25;39.71;100662.69;108238;1253;73615;-66
2023/04/16 04:38:12;;;;;;;45.00;24.70;;;;;;;21.05;39.96;100665.33;108247;1253;61379;-66
2023/04/16 04:40:43;;;;;;;37.90;24.50;;;;;;;20.76;40.49;100666.92;108064;1252;61362;-66
2023/04/16 04:43:11;;;;;;;46.40;25.40;;;;;;;21.04;40.07;100667.74;108286;1254;74091;-65
2023/04/16 04:45:39;;;;;;;42.50;24.80;;;;;;;21.09;39.90;100668.09;108056;1254;71524;-67
2023/04/16 04:48:07;;;;;;;53.50;28.20;;;;;;;21.28;39.59;100668.86;108078;1255;72032;-65
2023/04/16 04:50:35;;;;;;;44.40;26.40;;;;;;;21.38;39.37;100668.45;108090;1254;59481;-66
2023/04/16 04:53:08;;;;;;;51.60;27.50;;;;;;;21.48;39.21;100667.27;108068;1252;61576;-65
2023/04/16 04:55:40;;;;;;;45.50;25.80;;;;;;;21.47;39.24;100667.84;108213;1252;73630;-66
2023/04/16 04:58:08;;;;;;;49.60;25.60;;;;;;;21.14;39.77;100670.91;108194;1254;68131;-66
2023/04/16 05:00:37;;;;;;;56.40;29.50;;;;;;;20.98;39.96;100674.45;108167;1254;74005;-66
2023/04/16 05:03:09;;;;;;;49.30;27.40;;;;;;;20.75;40.39;100675.52;108134;1254;60423;-66
2023/04/16 05:05:40;;;;;;;47.90;25.80;;;;;;;20.79;40.31;100680.29;108051;1253;59862;-66
2023/04/16 05:08:09;;;;;;;48.30;28.30;;;;;;;20.72;40.50;100678.09;108153;1253;73556;-66
2023/04/16 05:10:37;;;;;;;49.70;27.80;;;;;;;20.60;40.76;100679.10;108171;1254;70404;-66
2023/04/16 05:13:05;;;;;;;52.40;28.20;;;;;;;20.49;41.05;100678.20;108188;1256;72913;-67
2023/04/16 05:15:33;;;;;;;49.00;27.80;;;;;;;20.64;40.68;100680.73;108183;1256;60080;-66
2023/04/16 05:18:01;;;;;;;49.00;27.80;;;;;;;21.05;40.07;100683.70;108155;1254;60309;-66
2023/04/16 05:20:29;;;;;;;44.50;28.30;;;;;;;21.05;40.07;100683.19;108189;1252;72939;-66
2023/04/16 05:22:57;;;;;;;48.10;28.10;;;;;;;20.93;40.28;100682.11;108257;1253;70634;-66
2023/04/16 05:25:26;;;;;;;50.00;26.30;;;;;;;20.90;40.30;100681.82;108145;1253;72825;-65
2023/04/16 05:27:53;;;;;;;74.90;38.40;;;;;;;20.38;41.12;100686.30;108237;1253;61405;-67
2023/04/16 05:30:21;;;;;;;58.90;30.90;;;;;;;20.20;41.56;100687.67;108167;1253;60551;-67
2023/04/16 05:32:50;;;;;;;85.50;51.20;;;;;;;19.95;42.08;100691.88;108181;1253;75116;-66
2023/04/16 05:35:18;;;;;;;49.10;27.20;;;;;;;19.54;42.88;100698.52;108050;1254;69738;-66
2023/04/16 05:37:46;;;;;;;48.10;29.40;;;;;;;19.83;42.50;100694.46;108236;1253;71000;-66
2023/04/16 05:40:14;;;;;;;45.70;26.50;;;;;;;20.32;41.67;100691.67;108146;1252;61277;-67
2023/04/16 05:42:42;;;;;;;46.40;26.30;;;;;;;20.30;41.50;100690.21;108162;1253;61215;-66
2023/04/16 05:45:10;;;;;;;41.40;25.30;;;;;;;20.50;41.16;100690.12;108177;1253;74579;-66
2023/04/16 05:47:39;;;;;;;39.70;24.40;;;;;;;20.66;40.74;100689.39;108266;1254;70454;-65
2023/04/16 05:50:07;;;;;;;48.50;31.20;;;;;;;20.76;40.49;100691.19;108241;1256;72661;-66
2023/04/16 05:52:35;;;;;;;39.90;23.70;;;;;;;20.79;40.41;100693.97;108269;1253;61264;-66
2023/04/16 05:55:04;;;;;;;45.50;24.80;;;;;;;20.76;40.49;100695.65;108239;1253;60286;-67
2023/04/16 05:57:32;;;;;;;39.20;23.40;;;;;;;20.77;40.35;100695.02;108125;1253;75000;-66
2023/04/16 06:00:00;;;;;;;48.60;31.30;;;;;;;21.21;39.78;100698.52;108115;1253;69362;-67
2023/04/16 06:02:38;;;;;;;37.10;23.90;;;;;;;20.96;40.13;100702.77;108083;1253;73566;-67
2023/04/16 06:05:07;;;;;;;77.30;62.80;;;;;;;21.21;39.77;100704.41;108110;1253;62405;-66
2023/04/16 06:07:35;;;;;;;39.20;24.50;;;;;;;21.30;39.60;100704.82;108171;1253;60287;-66
2023/04/16 06:10:03;;;;;;;35.10;22.50;;;;;;;21.44;39.27;100708.82;108140;1253;74713;-66
2023/04/16 06:12:32;;;;;;;35.10;21.20;;;;;;;21.75;38.74;100713.31;108144;1254;69654;-67
2023/04/16 06:15:00;;;;;;;37.40;19.50;;;;;;;21.75;38.71;100716.55;108030;1253;73761;-67
2023/04/16 06:17:29;;;;;;;36.30;20.20;;;;;;;21.81;38.62;100715.55;108067;1253;60426;-67
2023/04/16 06:19:57;;;;;;;36.90;23.10;;;;;;;22.07;38.27;100718.44;108097;1253;61013;-67
2023/04/16 06:22:25;;;;;;;49.60;29.00;;;;;;;21.89;38.37;100718.17;108108;1253;74182;-66
2023/04/16 06:24:53;;;;;;;35.60;21.20;;;;;;;21.66;38.65;100721.98;108108;1256;71279;-67
2023/04/16 06:27:21;;;;;;;36.70;22.10;;;;;;;21.65;38.74;100723.54;108077;1254;71799;-67
2023/04/16 06:29:49;;;;;;;37.00;21.40;;;;;;;21.72;38.64;100726.77;108109;1253;61896;-67
2023/04/16 06:32:17;;;;;;;43.70;24.00;;;;;;;21.48;39.08;100730.08;108081;1254;60286;-67
2023/04/16 06:34:45;;;;;;;46.90;28.90;;;;;;;21.58;38.80;100728.31;108122;1256;74770;-67
2023/04/16 06:37:13;;;;;;;58.20;31.50;;;;;;;21.56;39.08;100730.63;108082;1255;68469;-66
2023/04/16 06:39:41;;;;;;;49.60;28.10;;;;;;;21.58;38.97;100736.32;108106;1257;73085;-66
2023/04/16 06:42:09;;;;;;;36.80;21.50;;;;;;;21.44;39.23;100736.33;108104;1253;61216;-67
2023/04/16 06:44:38;;;;;;;40.80;23.30;;;;;;;21.54;39.20;100743.08;108113;1253;60335;-66
2023/04/16 06:47:06;;;;;;;38.80;20.80;;;;;;;21.72;38.89;100743.72;108093;1253;75021;-65
2023/04/16 06:49:35;;;;;;;42.40;22.50;;;;;;;21.08;39.95;100748.11;108115;1253;69998;-67
2023/04/16 06:52:03;;;;;;;42.40;23.00;;;;;;;20.94;40.08;100749.65;108074;1253;72808;-66
2023/04/16 06:54:33;;;;;;;42.30;22.40;;;;;;;20.99;40.15;100748.23;108059;1253;60764;-67
2023/04/16 06:57:01;;;;;;;52.90;23.80;;;;;;;21.19;39.99;100747.58;108293;1252;60319;-66
2023/04/16 06:59:29;;;;;;;47.10;24.50;;;;;;;21.25;39.93;100753.73;108273;1253;74089;-67
2023/04/16 07:01:57;;;;;;;40.40;22.70;;;;;;;21.18;39.99;100757.23;108195;1254;69644;-66
2023/04/16 07:04:27;;;;;;;44.50;24.60;;;;;;;21.20;40.07;100759.62;108080;1253;74088;-66
2023/04/16 07:06:55;;;;;;;42.00;20.30;;;;;;;21.41;39.65;100759.20;108172;1253;60311;-66
2023/04/16 07:09:23;;;;;;;49.10;25.20;;;;;;;20.66;40.90;100764.97;108206;1253;60504;-66
2023/04/16 07:11:52;;;;;;;47.90;21.50;;;;;;;20.81;40.60;100767.17;108209;1253;73901;-65
2023/04/16 07:14:20;;;;;;;41.60;23.00;;;;;;;20.98;40.39;100764.77;108229;1253;70144;-66
2023/04/16 07:16:48;;;;;;;52.30;25.70;;;;;;;21.07;40.27;100766.05;108188;1256;73574;-67
2023/04/16 07:19:16;;;;;;;51.30;24.70;;;;;;;21.12;40.19;100771.63;108052;1253;60235;-68
2023/04/16 07:21:45;;;;;;;52.00;25.00;;;;;;;20.82;40.65;100771.76;108233;1253;60433;-66
2023/04/16 07:24:13;;;;;;;54.80;25.60;;;;;;;21.02;40.51;100770.88;108050;1253;72656;-65
2023/04/16 07:26:41;;;;;;;57.00;26.70;;;;;;;20.97;40.38;100770.91;108186;1253;70663;-66
2023/04/16 07:29:09;;;;;;;48.20;24.70;;;;;;;20.81;40.69;100769.52;108173;1253;72967;-67
2023/04/16 07:31:37;;;;;;;51.00;27.10;;;;;;;21.04;40.52;100766.84;108187;1252;62019;-66
2023/04/16 07:34:06;;;;;;;62.10;28.00;;;;;;;21.04;40.43;100772.02;108212;1252;60314;-66
2023/04/16 07:36:34;;;;;;;47.00;25.00;;;;;;;21.08;40.25;100766.55;108239;1253;75376;-66
2023/04/16 07:39:05;;;;;;;53.70;25.90;;;;;;;21.23;40.30;100762.64;108214;1252;69958;-66
2023/04/16 07:41:34;;;;;;;55.50;25.70;;;;;;;21.32;40.16;100768.61;108201;1253;73012;-65
2023/04/16 07:44:02;;;;;;;46.30;23.90;;;;;;;21.49;39.73;100766.28;108081;1252;61345;-67
2023/04/16 07:46:30;;;;;;;45.90;24.40;;;;;;;21.05;40.58;100764.96;108256;1252;60351;-67
2023/04/16 07:49:13;;;;;;;48.00;26.50;;;;;;;21.28;40.19;100761.17;108268;1252;71785;-66
2023/04/16 07:51:41;;;;;;;53.60;26.50;;;;;;;20.99;40.92;100767.91;108185;1255;70815;-66
2023/04/16 07:54:10;;;;;;;58.00;28.60;;;;;;;21.56;39.95;100763.67;108247;1253;72534;-66
2023/04/16 07:56:38;;;;;;;65.20;27.90;;;;;;;21.39;40.00;100768.82;108044;1253;61878;-67
2023/04/16 07:59:06;;;;;;;49.00;26.60;;;;;;;21.34;40.02;100774.33;108044;1253;58961;-67
2023/04/16 08:01:51;;;;;;;49.50;26.00;;;;;;;21.29;40.14;100772.73;108085;1253;72063;-67
2023/04/16 08:04:23;;;;;;;53.00;23.70;;;;;;;21.14;40.46;100777.18;108100;1256;71302;-67
2023/04/16 08:06:53;;;;;;;58.90;29.90;;;;;;;20.81;40.99;100786.45;108017;1256;72908;-67
2023/04/16 08:09:22;;;;;;;49.60;26.90;;;;;;;21.13;40.76;100782.27;108014;1253;62043;-67
2023/04/16 08:11:50;;;;;;;66.30;30.80;;;;;;;21.33;40.43;100782.84;108040;1253;60456;-67
2023/04/16 08:14:18;;;;;;;51.80;28.30;;;;;;;21.48;40.08;100787.09;108034;1253;73897;-66
2023/04/16 08:16:46;;;;;;;56.10;28.10;;;;;;;21.57;39.86;100779.10;107966;1253;70733;-67
2023/04/16 08:19:13;;;;;;;62.80;29.10;;;;;;;21.57;39.69;100781.48;108056;1253;72758;-66
2023/04/16 08:21:41;;;;;;;55.40;27.80;;;;;;;21.50;39.85;100781.94;108050;1253;60428;-66
2023/04/16 08:24:10;;;;;;;59.90;28.40;;;;;;;21.44;39.92;100779.73;108049;1253;60534;-66
2023/04/16 08:26:38;;;;;;;58.70;29.50;;;;;;;21.38;40.07;100776.94;108048;1253;72769;-66
2023/04/16 08:29:06;;;;;;;61.50;30.60;;;;;;;21.21;40.30;100774.17;108050;1253;71578;-67
2023/04/16 08:31:35;;;;;;;60.10;29.20;;;;;;;21.22;40.35;100774.32;107999;1253;71273;-67
2023/04/16 08:34:03;;;;;;;58.40;28.50;;;;;;;21.30;40.24;100775.90;108030;1253;60577;-67
2023/04/16 08:36:31;;;;;;;61.90;30.10;;;;;;;21.27;40.32;100770.34;108032;1253;60306;-67
2023/04/16 08:38:59;;;;;;;57.40;29.20;;;;;;;21.60;39.85;100771.41;108040;1253;74982;-66
2023/04/16 08:41:30;;;;;;;76.50;32.10;;;;;;;21.67;39.87;100771.46;108061;1253;69799;-66
2023/04/16 08:43:59;;;;;;;66.20;30.60;;;;;;;21.69;39.67;100772.20;108059;1253;72816;-67
2023/04/16 08:46:27;;;;;;;58.60;29.90;;;;;;;21.69;39.77;100770.94;108121;1253;60996;-67
2023/04/16 08:48:55;;;;;;;68.80;30.90;;;;;;;21.60;39.92;100769.60;108141;1253;60300;-66
2023/04/16 08:51:23;;;;;;;63.80;30.60;;;;;;;21.81;39.70;100770.42;107896;1253;74348;-66
2023/04/16 08:53:52;;;;;;;65.50;31.00;;;;;;;22.05;39.61;100773.23;108036;1253;71574;-66
2023/04/16 08:56:21;;;;;;;72.10;33.50;;;;;;;22.12;39.45;100775.62;108266;1253;73821;-66
2023/04/16 08:58:50;;;;;;;68.80;31.90;;;;;;;22.11;39.61;100778.03;108263;1256;60490;-66
2023/04/16 09:01:18;;;;;;;62.50;30.80;;;;;;;22.08;39.31;100780.36;108269;1253;60373;-67
2023/04/16 09:03:46;;;;;;;64.00;29.10;;;;;;;22.10;39.01;100776.70;108017;1253;71609;-67
2023/04/16 09:06:15;;;;;;;61.60;28.20;;;;;;;22.15;39.10;100777.39;108345;1252;69382;-66
2023/04/16 09:08:44;;;;;;;58.20;27.70;;;;;;;22.05;39.01;100778.10;108127;1253;73922;-66
2023/04/16 09:11:12;;;;;;;70.50;30.80;;;;;;;21.97;38.99;100778.35;108299;1253;61486;-67
2023/04/16 09:13:41;;;;;;;67.00;28.30;;;;;;;22.14;38.82;100777.09;108254;1256;60908;-67
2023/04/16 09:16:09;;;;;;;59.40;29.00;;;;;;;22.22;38.64;100774.36;108264;1252;74501;-66
2023/04/16 09:18:37;;;;;;;64.70;29.70;;;;;;;22.05;39.01;100780.05;108092;1253;71246;-66
2023/04/16 09:21:08;;;;;;;55.00;27.00;;;;;;;22.15;38.85;100775.01;108177;1252;72128;-66
2023/04/16 09:23:39;;;;;;;59.00;28.40;;;;;;;21.91;39.36;100777.87;108206;1252;61609;-66
2023/04/16 09:26:07;;;;;;;51.90;26.40;;;;;;;22.07;38.85;100776.89;108191;1253;60324;-66
2023/04/16 09:28:45;;;;;;;54.20;26.50;;;;;;;22.02;39.04;100773.50;108190;1256;75015;-66
2023/04/16 09:31:15;;;;;;;59.70;28.80;;;;;;;22.09;39.02;100777.11;108197;1253;71599;-66
2023/04/16 09:33:59;;;;;;;54.30;24.20;;;;;;;22.27;38.89;100777.38;108254;1253;74151;-65
2023/04/16 09:36:27;;;;;;;62.60;29.70;;;;;;;22.04;39.29;100781.92;108062;1252;60807;-66
2023/04/16 09:38:55;;;;;;;62.00;28.20;;;;;;;22.18;38.96;100783.08;108197;1252;60585;-68
2023/04/16 09:41:26;;;;;;;66.00;30.20;;;;;;;22.12;39.10;100782.23;108224;1253;75030;-65
2023/04/16 09:44:03;;;;;;;57.00;30.10;;;;;;;22.18;39.11;100783.97;108203;1253;71239;-66
2023/04/16 09:46:36;;;;;;;62.10;28.30;;;;;;;22.09;39.04;100783.16;108242;1252;73819;-67
2023/04/16 09:49:07;;;;;;;63.50;30.40;;;;;;;22.02;39.08;100789.23;108302;1252;62887;-66
2023/04/16 09:51:37;;;;;;;65.50;30.70;;;;;;;22.48;38.51;100787.77;108362;1253;60574;-66
2023/04/16 09:54:05;;;;;;;59.60;28.10;;;;;;;22.59;38.53;100792.86;108432;1252;73954;-66
2023/04/16 09:56:41;;;;;;;56.40;26.60;;;;;;;22.53;38.79;100795.98;108252;1253;71247;-66
2023/04/16 09:59:17;;;;;;;60.10;28.40;;;;;;;22.53;38.50;100797.41;108233;1253;71984;-66
2023/04/16 10:01:45;;;;;;;59.50;27.90;;;;;;;22.47;38.53;100800.77;108140;1253;61544;-66
2023/04/16 10:04:15;;;;;;;66.70;27.20;;;;;;;22.33;38.46;100807.65;108073;1253;60430;-66
2023/04/16 10:06:43;;;;;;;61.30;26.80;;;;;;;22.41;38.18;100811.17;108253;1253;73618;-67
2023/04/16 10:09:11;;;;;;;56.70;27.20;;;;;;;22.20;38.59;100810.46;108138;1253;69504;-65
2023/04/16 10:11:39;;;;;;;57.60;26.00;;;;;;;22.04;38.76;100810.94;108187;1253;71718;-66
2023/04/16 10:14:09;;;;;;;55.40;26.50;;;;;;;22.30;38.58;100812.38;108168;1253;61401;-66
2023/04/16 10:16:39;;;;;;;55.50;25.90;;;;;;;22.56;38.17;100811.48;108071;1253;60663;-67
2023/04/16 10:19:08;;;;;;;51.30;25.40;;;;;;;22.82;37.82;100816.44;108049;1253;74361;-65
2023/04/16 10:21:36;;;;;;;62.70;27.70;;;;;;;22.49;38.01;100821.66;107810;1253;71520;-66
2023/04/16 10:24:05;;;;;;;63.00;28.00;;;;;;;22.73;37.95;100818.59;107949;1253;72043;-66
2023/04/16 10:26:33;;;;;;;57.30;28.30;;;;;;;22.96;37.61;100819.14;108066;1253;60329;-66
2023/04/16 10:29:01;;;;;;;58.70;28.80;;;;;;;23.05;37.51;100816.82;108024;1253;61411;-67
2023/04/16 10:31:29;;;;;;;55.40;26.70;;;;;;;23.13;37.28;100819.48;108059;1253;75064;-66
2023/04/16 10:33:57;;;;;;;61.60;27.80;;;;;;;23.08;37.19;100819.63;108058;1253;71158;-67
2023/04/16 10:36:26;;;;;;;57.50;27.80;;;;;;;22.97;37.26;100823.20;107995;1254;74010;-67
2023/04/16 10:38:57;;;;;;;63.20;28.10;;;;;;;23.25;37.08;100823.90;108070;1253;62493;-66
2023/04/16 10:41:26;;;;;;;54.40;27.30;;;;;;;23.34;36.97;100826.59;108107;1253;60790;-66
2023/04/16 10:44:08;;;;;;;53.60;26.60;;;;;;;23.51;36.62;100827.02;108071;1253;73674;-66
2023/04/16 10:46:38;;;;;;;61.90;28.40;;;;;;;23.26;36.94;100825.06;108077;1257;70581;-67
2023/04/16 10:49:15;;;;;;;55.50;26.20;;;;;;;22.69;37.75;100835.20;108143;1256;72566;-67
2023/04/16 10:51:53;;;;;;;58.30;26.80;;;;;;;22.60;37.68;100829.92;108074;1253;61868;-67
2023/04/16 10:54:28;;;;;;;58.40;26.10;;;;;;;22.84;37.63;100829.58;108023;1258;59913;-67
2023/04/16 10:56:57;;;;;;;61.70;27.50;;;;;;;22.95;37.21;100828.73;108237;1252;74049;-66
2023/04/16 10:59:29;;;;;;;59.00;25.60;;;;;;;23.07;37.11;100828.55;108311;1252;69742;-66
2023/04/16 11:05:02;;;;;;;58.10;27.50;;;;;;;18.19;46.25;100845.58;105008;1289;600906;-66
2023/04/16 11:07:32;;;;;;;53.80;27.00;;;;;;;19.61;43.36;100838.94;107393;1263;60440;-66
2023/04/16 11:10:05;;;;;;;54.00;27.10;;;;;;;19.86;43.01;100837.73;107477;1263;61509;-66
2023/04/16 11:12:46;;;;;;;56.70;25.60;;;;;;;19.54;43.59;100836.84;107613;1260;73447;-67